Time;durP1;ratioP1;P1;durP2;ratioP2;P2;SDS_P1;SDS_P2;PMS_P1;PMS_P2;Temp;Humidity;BMP_temperature;BMP_pressure;BME280_temperature;BME280_humidity;BME280_pressure;Samples;Min_cycle;Max_cycle;Signal;HPM_P1;HPM_P2
2021/01/29 00:01:44;;;;;;;7.18;5.80;;;;;;;;;;5078205;28;20032;-87
2021/01/29 00:04:10;;;;;;;7.28;6.45;;;;;;;;;;5077611;28;20028;-85
2021/01/29 00:06:36;;;;;;;6.47;5.53;;;;;;;;;;5079939;28;20032;-86
2021/01/29 00:09:03;;;;;;;6.90;6.20;;;;;;;;;;5079587;28;20050;-86
2021/01/29 00:11:30;;;;;;;6.88;5.90;;;;;;;;;;5097616;28;20047;-85
2021/01/29 00:13:56;;;;;;;6.43;5.75;;;;;;;;;;5097962;28;20031;-85
2021/01/29 00:16:22;;;;;;;6.15;5.28;;;;;;;;;;5097484;28;20385;-85
2021/01/29 00:18:48;;;;;;;6.78;5.45;;;;;;;;;;5096705;28;20020;-86
2021/01/29 00:21:14;;;;;;;5.30;4.80;;;;;;;;;;5077807;28;20032;-85
2021/01/29 00:23:41;;;;;;;8.40;5.93;;;;;;;;;;5097160;28;20043;-86
2021/01/29 00:26:07;;;;;;;7.53;5.32;;;;;;;;;;5079333;28;20028;-86
2021/01/29 00:28:33;;;;;;;7.22;6.00;;;;;;;;;;5079912;28;20145;-86
2021/01/29 00:30:59;;;;;;;7.10;6.00;;;;;;;;;;5079563;28;20039;-85
2021/01/29 00:33:26;;;;;;;6.80;5.15;;;;;;;;;;5079550;28;20467;-86
2021/01/29 00:35:53;;;;;;;5.40;4.88;;;;;;;;;;5079280;28;20105;-86
2021/01/29 00:38:19;;;;;;;8.48;5.72;;;;;;;;;;5097142;28;20024;-85
2021/01/29 00:40:45;;;;;;;7.60;5.82;;;;;;;;;;5097440;28;20024;-84
2021/01/29 00:43:11;;;;;;;7.55;5.45;;;;;;;;;;5097646;28;20309;-86
2021/01/29 00:45:39;;;;;;;6.05;5.38;;;;;;;;;;5079413;28;20024;-85
2021/01/29 00:48:06;;;;;;;7.13;5.63;;;;;;;;;;5094548;28;20035;-86
2021/01/29 00:50:32;;;;;;;9.48;6.20;;;;;;;;;;5079666;28;20024;-85
2021/01/29 00:52:59;;;;;;;6.10;5.45;;;;;;;;;;5079614;28;20061;-86
2021/01/29 00:55:26;;;;;;;7.40;5.10;;;;;;;;;;5079663;28;20200;-87
2021/01/29 00:57:52;;;;;;;7.82;6.28;;;;;;;;;;5108935;28;20031;-86
2021/01/29 01:00:19;;;;;;;5.65;5.00;;;;;;;;;;5099642;28;20042;-85
2021/01/29 01:02:45;;;;;;;8.60;5.32;;;;;;;;;;5099905;28;20035;-87
2021/01/29 01:05:13;;;;;;;7.15;5.97;;;;;;;;;;5118310;28;20037;-85
2021/01/29 01:07:39;;;;;;;8.88;5.60;;;;;;;;;;5102726;28;20023;-85
2021/01/29 01:10:06;;;;;;;7.30;5.60;;;;;;;;;;5103730;28;20028;-84
2021/01/29 01:12:32;;;;;;;8.02;5.75;;;;;;;;;;5108538;28;20058;-83
2021/01/29 01:14:58;;;;;;;8.10;6.65;;;;;;;;;;5128058;28;20027;-84
2021/01/29 01:17:25;;;;;;;7.82;6.53;;;;;;;;;;5109518;28;20047;-84
2021/01/29 01:19:51;;;;;;;7.68;5.57;;;;;;;;;;5110388;28;20034;-86
2021/01/29 01:22:17;;;;;;;8.65;6.03;;;;;;;;;;5106105;28;20044;-85
2021/01/29 01:24:43;;;;;;;7.70;6.03;;;;;;;;;;5106444;28;20028;-85
2021/01/29 01:27:14;;;;;;;6.97;6.22;;;;;;;;;;5109857;28;20055;-85
2021/01/29 01:29:40;;;;;;;8.48;6.35;;;;;;;;;;5103381;28;20039;-84
2021/01/29 01:32:06;;;;;;;7.60;6.30;;;;;;;;;;5085056;28;20028;-84
2021/01/29 01:34:33;;;;;;;9.15;6.93;;;;;;;;;;5102123;28;20073;-83
2021/01/29 01:36:59;;;;;;;7.35;6.45;;;;;;;;;;5102320;28;20087;-83
2021/01/29 01:39:25;;;;;;;9.82;6.95;;;;;;;;;;5086590;28;20055;-84
2021/01/29 01:41:52;;;;;;;8.95;6.30;;;;;;;;;;5103949;28;20059;-84
2021/01/29 01:44:23;;;;;;;7.63;5.55;;;;;;;;;;5085965;28;20051;-86
2021/01/29 01:46:49;;;;;;;7.38;6.35;;;;;;;;;;5103583;28;20084;-85
2021/01/29 01:49:15;;;;;;;9.95;6.35;;;;;;;;;;5102652;28;20039;-86
2021/01/29 01:51:55;;;;;;;7.72;5.75;;;;;;;;;;5102347;28;20024;-86
2021/01/29 01:54:21;;;;;;;;;;;;;;;;;;5082523;28;20078;-87
2021/01/29 01:56:51;;;;;;;10.32;6.55;;;;;;;;;;5082067;28;19912;-86
2021/01/29 01:59:23;;;;;;;10.85;6.78;;;;;;;;;;5080786;28;20032;-86
2021/01/29 02:01:51;;;;;;;10.32;6.65;;;;;;;;;;5080994;28;20039;-86
2021/01/29 02:04:17;;;;;;;10.48;7.93;;;;;;;;;;5080528;28;20032;-86
2021/01/29 02:06:57;;;;;;;10.55;7.45;;;;;;;;;;5096286;28;20032;-86
2021/01/29 02:09:23;;;;;;;12.25;7.10;;;;;;;;;;5097689;28;20391;-84
2021/01/29 02:11:50;;;;;;;10.25;7.05;;;;;;;;;;5079967;28;20032;-83
2021/01/29 02:14:16;;;;;;;18.33;8.63;;;;;;;;;;5098190;28;20036;-84
2021/01/29 02:16:48;;;;;;;10.20;6.72;;;;;;;;;;5098138;28;20039;-84
2021/01/29 02:19:26;;;;;;;12.75;7.32;;;;;;;;;;5080601;28;20028;-84
2021/01/29 02:22:11;;;;;;;10.32;7.43;;;;;;;;;;5099327;28;20077;-85
2021/01/29 02:24:49;;;;;;;10.50;6.85;;;;;;;;;;5082044;28;20131;-84
2021/01/29 02:27:16;;;;;;;11.07;7.18;;;;;;;;;;5099237;28;20039;-84
2021/01/29 02:29:45;;;;;;;12.57;7.75;;;;;;;;;;5081958;28;20032;-84
2021/01/29 02:32:30;;;;;;;13.65;8.60;;;;;;;;;;5081619;28;20036;-86
2021/01/29 02:35:05;;;;;;;8.95;6.40;;;;;;;;;;5081565;28;20347;-86
2021/01/29 02:37:50;;;;;;;11.95;7.13;;;;;;;;;;5081924;28;20045;-87
2021/01/29 02:40:28;;;;;;;10.85;7.05;;;;;;;;;;5099181;28;20085;-85
2021/01/29 02:42:59;;;;;;;13.60;7.28;;;;;;;;;;5084263;28;20319;-86
2021/01/29 02:45:55;;;;;;;13.00;7.00;;;;;;;;;;5084074;28;20032;-85
2021/01/29 02:48:45;;;;;;;13.68;8.35;;;;;;;;;;5006875;28;20042;-84
2021/01/29 02:51:11;;;;;;;;;;;;;;;;;;5062093;28;20305;-86
2021/01/29 02:53:52;;;;;;;11.55;7.50;;;;;;;;;;5015474;28;20327;-86
2021/01/29 02:56:18;;;;;;;10.57;6.95;;;;;;;;;;5084075;28;20140;-84
2021/01/29 02:58:44;;;;;;;10.85;7.63;;;;;;;;;;5016205;28;20030;-86
2021/01/29 03:01:18;;;;;;;11.18;7.18;;;;;;;;;;5084873;28;20102;-85
2021/01/29 03:03:54;;;;;;;16.58;7.95;;;;;;;;;;5016126;28;20030;-86
2021/01/29 03:06:27;;;;;;;10.25;7.10;;;;;;;;;;5015781;28;20030;-85
2021/01/29 03:08:58;;;;;;;10.70;7.15;;;;;;;;;;5084637;28;20037;-85
2021/01/29 03:11:24;;;;;;;11.35;7.38;;;;;;;;;;5084444;28;20030;-85
2021/01/29 03:14:05;;;;;;;10.27;6.72;;;;;;;;;;5083774;28;20394;-85
2021/01/29 03:16:37;;;;;;;12.38;8.27;;;;;;;;;;5083833;28;20037;-85
2021/01/29 03:19:10;;;;;;;13.48;7.20;;;;;;;;;;5083955;28;20057;-85
2021/01/29 03:21:40;;;;;;;12.55;6.90;;;;;;;;;;5015991;28;20030;-85
2021/01/29 03:24:09;;;;;;;10.38;7.10;;;;;;;;;;5084047;28;20129;-85
2021/01/29 03:26:38;;;;;;;11.77;7.70;;;;;;;;;;5084753;28;20034;-86
2021/01/29 03:29:07;;;;;;;11.67;8.53;;;;;;;;;;5084354;28;20118;-85
2021/01/29 03:31:34;;;;;;;11.30;7.88;;;;;;;;;;5015835;28;20037;-85
2021/01/29 03:34:07;;;;;;;13.23;7.55;;;;;;;;;;5083920;28;20044;-85
2021/01/29 03:36:35;;;;;;;11.63;6.80;;;;;;;;;;5016146;28;20046;-85
2021/01/29 03:39:08;;;;;;;10.48;6.95;;;;;;;;;;5015474;28;20030;-85
2021/01/29 03:41:36;;;;;;;15.73;8.18;;;;;;;;;;5083677;28;20038;-85
2021/01/29 03:44:06;;;;;;;10.45;7.88;;;;;;;;;;5014641;28;20030;-85
2021/01/29 03:46:35;;;;;;;14.18;9.00;;;;;;;;;;5082723;28;20068;-86
2021/01/29 03:49:17;;;;;;;7.57;6.68;;;;;;;;;;5014137;28;20030;-84
2021/01/29 03:51:45;;;;;;;11.73;7.88;;;;;;;;;;5015357;28;20042;-85
2021/01/29 03:54:23;;;;;;;11.77;7.90;;;;;;;;;;5015180;28;20032;-84
2021/01/29 03:56:58;;;;;;;11.40;7.53;;;;;;;;;;5083675;28;20057;-85
2021/01/29 03:59:34;;;;;;;10.88;7.25;;;;;;;;;;5083557;28;20038;-85
2021/01/29 04:02:40;;;;;;;10.93;8.00;;;;;;;;;;5083154;28;20065;-84
2021/01/29 04:05:10;;;;;;;13.90;8.77;;;;;;;;;;5034751;28;20037;-84
2021/01/29 04:07:39;;;;;;;15.40;7.93;;;;;;;;;;5036078;28;20345;-85
2021/01/29 04:10:10;;;;;;;15.85;7.85;;;;;;;;;;5024648;28;20069;-85
2021/01/29 04:12:42;;;;;;;10.85;7.82;;;;;;;;;;5014841;28;20078;-85
2021/01/29 04:15:27;;;;;;;11.75;7.65;;;;;;;;;;5067761;28;20035;-85
2021/01/29 04:18:01;;;;;;;13.02;8.13;;;;;;;;;;5054417;28;20107;-85
2021/01/29 04:20:36;;;;;;;13.88;7.82;;;;;;;;;;5079579;28;20118;-86
2021/01/29 04:23:04;;;;;;;11.57;7.15;;;;;;;;;;5097470;28;20094;-84
2021/01/29 04:25:33;;;;;;;11.13;7.88;;;;;;;;;;5097915;28;20028;-84
2021/01/29 04:28:11;;;;;;;12.65;8.05;;;;;;;;;;5079925;28;20039;-84
2021/01/29 04:30:39;;;;;;;13.55;8.20;;;;;;;;;;5098276;28;20032;-85
2021/01/29 04:33:12;;;;;;;10.90;7.60;;;;;;;;;;5079629;28;20367;-84
2021/01/29 04:35:39;;;;;;;14.02;8.40;;;;;;;;;;5097649;28;20036;-84
2021/01/29 04:38:20;;;;;;;11.48;7.80;;;;;;;;;;5079368;28;20032;-84
2021/01/29 04:40:49;;;;;;;13.10;6.60;;;;;;;;;;5079980;28;20039;-84
2021/01/29 04:43:35;;;;;;;11.48;7.35;;;;;;;;;;5080001;28;20028;-84
2021/01/29 04:46:08;;;;;;;12.80;7.40;;;;;;;;;;5080104;28;20036;-84
2021/01/29 04:48:40;;;;;;;11.73;8.02;;;;;;;;;;5080055;28;20027;-85
2021/01/29 04:51:16;;;;;;;10.13;7.30;;;;;;;;;;5097177;28;20028;-83
2021/01/29 04:53:56;;;;;;;11.55;7.57;;;;;;;;;;5097788;28;20101;-85
2021/01/29 04:56:34;;;;;;;10.57;7.13;;;;;;;;;;5079780;28;20123;-84
2021/01/29 04:59:08;;;;;;;13.20;9.40;;;;;;;;;;5078967;28;20047;-84
2021/01/29 05:01:53;;;;;;;9.10;6.65;;;;;;;;;;5078547;28;20032;-85
2021/01/29 05:04:38;;;;;;;12.43;7.93;;;;;;;;;;5097084;28;20502;-85
2021/01/29 05:07:33;;;;;;;9.85;6.93;;;;;;;;;;5079373;28;20119;-84
2021/01/29 05:10:27;;;;;;;9.82;6.30;;;;;;;;;;4992333;28;20042;-85
2021/01/29 05:12:58;;;;;;;12.93;7.32;;;;;;;;;;5097679;28;20423;-84
2021/01/29 05:15:27;;;;;;;12.65;7.22;;;;;;;;;;5079689;28;20028;-84
2021/01/29 05:18:04;;;;;;;12.18;7.35;;;;;;;;;;5095166;28;20031;-85
2021/01/29 05:20:56;;;;;;;9.73;6.32;;;;;;;;;;5097356;28;20024;-85
2021/01/29 05:23:34;;;;;;;10.07;6.85;;;;;;;;;;5095888;28;20031;-85
2021/01/29 05:26:18;;;;;;;11.32;6.57;;;;;;;;;;5096531;28;20111;-85
2021/01/29 05:29:03;;;;;;;9.57;6.75;;;;;;;;;;5079220;28;20047;-85
2021/01/29 05:31:52;;;;;;;9.82;7.55;;;;;;;;;;5079053;28;20122;-84
2021/01/29 05:34:18;;;;;;;;;;;;;;;;;;5027280;28;20042;-85
2021/01/29 05:37:00;;;;;;;11.98;7.00;;;;;;;;;;5049295;28;19924;-85
2021/01/29 05:39:29;;;;;;;8.32;6.88;;;;;;;;;;5074102;28;20036;-85
2021/01/29 05:41:55;;;;;;;8.00;5.65;;;;;;;;;;5086357;28;20024;-84
2021/01/29 05:44:33;;;;;;;8.57;6.55;;;;;;;;;;5096277;28;20080;-85
2021/01/29 05:47:17;;;;;;;11.13;6.25;;;;;;;;;;5116075;28;20023;-84
2021/01/29 05:49:43;;;;;;;7.25;6.55;;;;;;;;;;5097380;28;20103;-85
2021/01/29 05:52:25;;;;;;;7.00;5.50;;;;;;;;;;5105329;28;20024;-85
2021/01/29 05:55:10;;;;;;;9.63;6.97;;;;;;;;;;5083998;28;20054;-84
2021/01/29 05:57:55;;;;;;;11.75;6.32;;;;;;;;;;5090298;28;20036;-85
2021/01/29 06:00:40;;;;;;;10.43;5.60;;;;;;;;;;5052302;28;20054;-83
2021/01/29 06:03:24;;;;;;;11.80;7.95;;;;;;;;;;5041664;28;20368;-85
2021/01/29 06:05:56;;;;;;;10.50;6.85;;;;;;;;;;5038924;28;20036;-84
2021/01/29 06:08:32;;;;;;;10.20;6.95;;;;;;;;;;5081230;28;20038;-85
2021/01/29 06:11:10;;;;;;;7.40;6.10;;;;;;;;;;5062358;28;20125;-85
2021/01/29 06:13:55;;;;;;;8.23;6.00;;;;;;;;;;5093677;28;20138;-85
2021/01/29 06:16:40;;;;;;;10.65;6.97;;;;;;;;;;5098856;28;20039;-86
2021/01/29 06:19:27;;;;;;;8.10;5.95;;;;;;;;;;5108132;28;20027;-86
2021/01/29 06:22:09;;;;;;;8.13;6.22;;;;;;;;;;5097564;28;20101;-86
2021/01/29 06:24:38;;;;;;;5.63;5.05;;;;;;;;;;5097204;28;20024;-85
2021/01/29 06:27:19;;;;;;;10.45;6.65;;;;;;;;;;5097872;28;20039;-84
2021/01/29 06:30:01;;;;;;;8.48;6.10;;;;;;;;;;5062912;28;20091;-85
2021/01/29 06:32:27;;;;;;;7.80;5.80;;;;;;;;;;5063300;28;20028;-86
2021/01/29 06:35:07;;;;;;;8.10;6.05;;;;;;;;;;5099206;28;20036;-86
2021/01/29 06:37:36;;;;;;;10.43;6.25;;;;;;;;;;5101070;28;20044;-85
2021/01/29 06:40:12;;;;;;;7.30;5.55;;;;;;;;;;5105802;28;20031;-86
2021/01/29 06:42:57;;;;;;;8.00;5.47;;;;;;;;;;5092707;28;20043;-84
2021/01/29 06:45:29;;;;;;;9.25;6.07;;;;;;;;;;5098345;28;20039;-85
2021/01/29 06:48:14;;;;;;;7.85;5.55;;;;;;;;;;5095080;28;20027;-84
2021/01/29 06:50:44;;;;;;;6.55;5.40;;;;;;;;;;5091835;28;20117;-84
2021/01/29 06:53:13;;;;;;;9.18;5.22;;;;;;;;;;5104332;28;20096;-84
2021/01/29 06:55:58;;;;;;;7.45;5.03;;;;;;;;;;5106888;28;20077;-84
2021/01/29 06:58:30;;;;;;;6.43;5.43;;;;;;;;;;5061727;28;20048;-84
2021/01/29 07:01:05;;;;;;;7.10;5.03;;;;;;;;;;5107977;28;20032;-86
2021/01/29 07:03:31;;;;;;;6.63;5.38;;;;;;;;;;5094956;28;20065;-86
2021/01/29 07:06:00;;;;;;;8.00;5.65;;;;;;;;;;5084422;28;20023;-85
2021/01/29 07:08:26;;;;;;;7.05;5.35;;;;;;;;;;5070501;28;20037;-86
2021/01/29 07:11:05;;;;;;;7.00;4.63;;;;;;;;;;5054597;28;20034;-85
2021/01/29 07:13:37;;;;;;;5.72;5.13;;;;;;;;;;5076525;28;20443;-85
2021/01/29 07:16:03;;;;;;;6.85;4.68;;;;;;;;;;5061902;28;20100;-85
2021/01/29 07:18:47;;;;;;;5.10;4.47;;;;;;;;;;5065970;28;20035;-84
2021/01/29 07:21:30;;;;;;;7.15;5.40;;;;;;;;;;5077101;28;20035;-84
2021/01/29 07:24:15;;;;;;;7.53;5.10;;;;;;;;;;5057637;28;20079;-84
2021/01/29 07:27:00;;;;;;;6.53;4.85;;;;;;;;;;5056970;28;20040;-84
2021/01/29 07:29:30;;;;;;;5.85;4.53;;;;;;;;;;5044745;28;20067;-84
2021/01/29 07:31:56;;;;;;;5.63;4.85;;;;;;;;;;5048278;28;20022;-85
2021/01/29 07:34:38;;;;;;;7.65;5.47;;;;;;;;;;5096822;28;20043;-86
2021/01/29 07:37:13;;;;;;;6.70;4.90;;;;;;;;;;5078165;28;20026;-86
2021/01/29 07:39:57;;;;;;;6.75;5.82;;;;;;;;;;5061408;28;20030;-84
2021/01/29 07:42:45;;;;;;;5.35;4.82;;;;;;;;;;5052453;28;20083;-84
2021/01/29 07:45:30;;;;;;;5.05;4.45;;;;;;;;;;5046568;28;20028;-85
2021/01/29 07:48:15;;;;;;;5.40;4.55;;;;;;;;;;5080017;28;20048;-85
2021/01/29 07:50:50;;;;;;;5.97;4.50;;;;;;;;;;5078057;28;20065;-86
2021/01/29 07:53:22;;;;;;;6.53;4.60;;;;;;;;;;5061065;28;20103;-85
2021/01/29 07:56:07;;;;;;;7.07;5.28;;;;;;;;;;5021923;28;20248;-86
2021/01/29 07:58:38;;;;;;;5.47;4.82;;;;;;;;;;5002255;28;20087;-85
2021/01/29 08:01:23;;;;;;;4.65;4.25;;;;;;;;;;5080980;28;20046;-85
2021/01/29 08:03:53;;;;;;;4.88;4.20;;;;;;;;;;5060740;28;20045;-86
2021/01/29 08:06:19;;;;;;;5.03;4.18;;;;;;;;;;5092786;28;20019;-86
2021/01/29 08:08:50;;;;;;;5.50;4.28;;;;;;;;;;5077017;28;20364;-85
2021/01/29 08:11:16;;;;;;;5.60;4.22;;;;;;;;;;5033459;28;20034;-85
2021/01/29 08:13:59;;;;;;;4.97;4.50;;;;;;;;;;5076134;28;20140;-86
2021/01/29 08:16:28;;;;;;;4.10;3.67;;;;;;;;;;5072015;28;20040;-85
2021/01/29 08:18:57;;;;;;;4.50;4.10;;;;;;;;;;5092386;28;20024;-85
2021/01/29 08:21:32;;;;;;;4.50;4.10;;;;;;;;;;5078233;28;20078;-85
2021/01/29 08:24:17;;;;;;;6.07;4.90;;;;;;;;;;5081880;28;20458;-87
2021/01/29 08:27:02;;;;;;;5.75;4.78;;;;;;;;;;5060065;28;20039;-85
2021/01/29 08:29:37;;;;;;;6.20;5.60;;;;;;;;;;5064008;28;20029;-84
2021/01/29 08:32:15;;;;;;;6.40;5.30;;;;;;;;;;5060540;28;20031;-85
2021/01/29 08:34:50;;;;;;;7.03;4.90;;;;;;;;;;5048417;28;20121;-86
2021/01/29 08:37:35;;;;;;;4.95;4.55;;;;;;;;;;5086419;28;20035;-85
2021/01/29 08:40:08;;;;;;;6.10;5.43;;;;;;;;;;5079031;28;20020;-83
2021/01/29 08:42:43;;;;;;;5.45;4.95;;;;;;;;;;5068817;28;20050;-86
2021/01/29 08:45:20;;;;;;;8.32;6.03;;;;;;;;;;5063236;28;20039;-85
2021/01/29 08:48:01;;;;;;;7.50;5.43;;;;;;;;;;5056098;28;20028;-85
2021/01/29 08:50:45;;;;;;;6.78;5.80;;;;;;;;;;5103410;28;20031;-85
2021/01/29 08:53:24;;;;;;;5.88;5.35;;;;;;;;;;5101433;28;20035;-85
2021/01/29 08:56:05;;;;;;;6.85;5.90;;;;;;;;;;5078676;28;20035;-85
2021/01/29 08:58:50;;;;;;;6.35;5.57;;;;;;;;;;5105529;28;20023;-85
2021/01/29 09:01:29;;;;;;;7.38;4.90;;;;;;;;;;5097506;28;20032;-87
2021/01/29 09:04:00;;;;;;;6.03;4.63;;;;;;;;;;5082588;28;20047;-86
2021/01/29 09:06:28;;;;;;;6.57;4.85;;;;;;;;;;5086041;28;20042;-85
2021/01/29 09:08:59;;;;;;;5.50;4.90;;;;;;;;;;5097887;28;20038;-84
2021/01/29 09:11:35;;;;;;;6.03;5.28;;;;;;;;;;5081741;28;20405;-84
2021/01/29 09:14:04;;;;;;;8.20;5.90;;;;;;;;;;5078646;28;20024;-85
2021/01/29 09:16:34;;;;;;;5.85;4.00;;;;;;;;;;5098996;28;20032;-85
2021/01/29 09:19:14;;;;;;;6.63;5.07;;;;;;;;;;5071955;28;20059;-86
2021/01/29 09:21:59;;;;;;;7.50;4.85;;;;;;;;;;5059585;28;20057;-85
2021/01/29 09:24:34;;;;;;;7.43;4.63;;;;;;;;;;5088444;28;20037;-87
2021/01/29 09:27:07;;;;;;;7.32;4.05;;;;;;;;;;5081093;28;20070;-84
2021/01/29 09:29:37;;;;;;;9.75;4.68;;;;;;;;;;5093020;28;20030;-85
2021/01/29 09:32:06;;;;;;;6.43;4.10;;;;;;;;;;5084333;28;20287;-86
2021/01/29 09:34:38;;;;;;;8.27;4.40;;;;;;;;;;5082709;28;20028;-84
2021/01/29 09:37:12;;;;;;;11.73;4.28;;;;;;;;;;5074889;28;20050;-86
2021/01/29 09:39:59;;;;;;;6.28;4.03;;;;;;;;;;5087555;28;20031;-86
2021/01/29 09:42:29;;;;;;;13.55;4.18;;;;;;;;;;5095228;28;20020;-86
2021/01/29 09:45:04;;;;;;;7.15;4.18;;;;;;;;;;5086329;28;20027;-86
2021/01/29 09:47:40;;;;;;;11.70;4.25;;;;;;;;;;5085891;28;20035;-88
2021/01/29 09:50:08;;;;;;;10.43;3.47;;;;;;;;;;5080251;28;20207;-86
2021/01/29 09:52:59;;;;;;;8.60;4.40;;;;;;;;;;5084606;28;20077;-85
2021/01/29 09:55:44;;;;;;;13.15;4.32;;;;;;;;;;5101676;28;20047;-85
2021/01/29 09:58:15;;;;;;;11.52;4.05;;;;;;;;;;5115442;27;20008;-85
2021/01/29 10:00:43;;;;;;;11.55;3.70;;;;;;;;;;5094799;28;20028;-85
2021/01/29 10:03:22;;;;;;;10.15;3.90;;;;;;;;;;5072824;28;20035;-85
2021/01/29 10:05:52;;;;;;;19.80;5.05;;;;;;;;;;5082518;28;20020;-85
2021/01/29 10:08:18;;;;;;;13.73;4.72;;;;;;;;;;5074648;28;20042;-87
2021/01/29 10:11:04;;;;;;;11.38;4.47;;;;;;;;;;5087137;28;20058;-85
2021/01/29 10:13:38;;;;;;;15.95;4.85;;;;;;;;;;5115756;28;20032;-86
2021/01/29 10:16:13;;;;;;;24.27;5.43;;;;;;;;;;5110477;28;20046;-85
2021/01/29 10:18:40;;;;;;;24.95;4.90;;;;;;;;;;5095750;28;20036;-86
2021/01/29 10:21:19;;;;;;;17.85;4.80;;;;;;;;;;5107712;28;20040;-83
2021/01/29 10:23:46;;;;;;;;;;;;;;;;;;5047738;28;20068;-84
2021/01/29 10:26:22;;;;;;;21.77;4.57;;;;;;;;;;5075840;28;20003;-87
2021/01/29 10:28:58;;;;;;;16.85;3.70;;;;;;;;;;5083144;28;20032;-87
2021/01/29 10:31:25;;;;;;;18.58;4.85;;;;;;;;;;5096974;28;20311;-85
2021/01/29 10:34:00;;;;;;;26.52;4.75;;;;;;;;;;5096298;28;20422;-85
2021/01/29 10:36:28;;;;;;;20.15;4.40;;;;;;;;;;5084716;28;20143;-84
2021/01/29 10:39:00;;;;;;;31.70;5.22;;;;;;;;;;5088098;28;20027;-85
2021/01/29 10:41:47;;;;;;;14.85;3.72;;;;;;;;;;5043739;28;20463;-85
2021/01/29 10:44:13;;;;;;;14.77;3.53;;;;;;;;;;5071403;28;20032;-85
2021/01/29 10:46:57;;;;;;;23.42;5.13;;;;;;;;;;5088346;28;20300;-85
2021/01/29 10:49:27;;;;;;;20.15;4.35;;;;;;;;;;5081013;28;20040;-86
2021/01/29 10:51:53;;;;;;;;;;;;;;;;;;5078669;28;20262;-84
2021/01/29 10:54:20;;;;;;;25.38;5.35;;;;;;;;;;5087184;28;20002;-85
2021/01/29 10:56:59;;;;;;;19.13;4.30;;;;;;;;;;5085939;28;20509;-85
2021/01/29 10:59:35;;;;;;;22.48;4.50;;;;;;;;;;5093373;28;20036;-84
2021/01/29 11:02:13;;;;;;;24.27;4.80;;;;;;;;;;5061340;28;20041;-86
2021/01/29 11:04:41;;;;;;;17.98;4.22;;;;;;;;;;5051012;28;20039;-86
2021/01/29 11:07:15;;;;;;;27.77;5.82;;;;;;;;;;5100705;28;20032;-85
2021/01/29 11:09:43;;;;;;;20.20;4.22;;;;;;;;;;5086207;28;20098;-85
2021/01/29 11:12:24;;;;;;;34.92;6.30;;;;;;;;;;5099128;28;20024;-85
2021/01/29 11:14:58;;;;;;;40.47;7.18;;;;;;;;;;5098728;28;20032;-85
2021/01/29 11:17:33;;;;;;;23.40;4.53;;;;;;;;;;5081067;28;20403;-85
2021/01/29 11:20:01;;;;;;;26.25;5.35;;;;;;;;;;5078819;28;20347;-86
2021/01/29 11:22:47;;;;;;;34.05;5.60;;;;;;;;;;5076147;28;20119;-85
2021/01/29 11:25:33;;;;;;;27.25;5.32;;;;;;;;;;5040337;28;20096;-86
2021/01/29 11:28:28;;;;;;;23.27;4.93;;;;;;;;;;5039340;28;20431;-85
2021/01/29 11:30:59;;;;;;;30.13;6.05;;;;;;;;;;5053821;28;20099;-84
2021/01/29 11:33:27;;;;;;;28.02;6.30;;;;;;;;;;5077642;28;20312;-85
2021/01/29 11:35:59;;;;;;;24.25;5.15;;;;;;;;;;5086515;28;20043;-86
2021/01/29 11:38:37;;;;;;;29.33;5.50;;;;;;;;;;5100182;28;20042;-84
2021/01/29 11:41:19;;;;;;;25.75;5.88;;;;;;;;;;5083879;28;20031;-85
2021/01/29 11:43:49;;;;;;;25.83;5.30;;;;;;;;;;5105838;28;20409;-85
2021/01/29 11:46:39;;;;;;;28.27;5.30;;;;;;;;;;5095580;28;20038;-85
2021/01/29 11:49:05;;;;;;;26.42;4.38;;;;;;;;;;5043668;28;20418;-85
2021/01/29 11:51:34;;;;;;;28.30;6.70;;;;;;;;;;5035485;28;20074;-85
2021/01/29 11:54:06;;;;;;;33.45;5.25;;;;;;;;;;5069622;28;20076;-86
2021/01/29 11:56:35;;;;;;;29.55;5.05;;;;;;;;;;5065170;28;20040;-83
2021/01/29 11:59:07;;;;;;;23.38;4.13;;;;;;;;;;5068224;28;20069;-84
2021/01/29 12:01:40;;;;;;;36.88;5.63;;;;;;;;;;5079600;28;20075;-85
2021/01/29 12:04:21;;;;;;;20.98;4.50;;;;;;;;;;5083057;28;20131;-84
2021/01/29 12:07:10;;;;;;;22.25;4.35;;;;;;;;;;5074897;28;20036;-85
2021/01/29 12:09:38;;;;;;;;;;;;;;;;;;5030673;28;20036;-85
2021/01/29 12:12:07;;;;;;;25.60;4.20;;;;;;;;;;5095640;28;19939;-83
2021/01/29 12:14:40;;;;;;;30.83;4.67;;;;;;;;;;5102458;28;20036;-83
2021/01/29 12:17:08;;;;;;;22.42;4.75;;;;;;;;;;5100279;28;20038;-83
2021/01/29 12:19:41;;;;;;;32.80;5.88;;;;;;;;;;5084527;28;20024;-83
2021/01/29 12:22:26;;;;;;;29.45;5.82;;;;;;;;;;5078256;28;20436;-83
2021/01/29 12:24:58;;;;;;;24.20;4.47;;;;;;;;;;5075508;28;20030;-83
2021/01/29 12:27:29;;;;;;;17.92;3.70;;;;;;;;;;5037007;28;20036;-83
2021/01/29 12:30:00;;;;;;;26.60;4.50;;;;;;;;;;5076977;28;20085;-84
2021/01/29 12:32:30;;;;;;;19.40;3.40;;;;;;;;;;5087619;28;20435;-85
2021/01/29 12:34:56;;;;;;;;;;;;;;;;;;5087869;28;20020;-84
2021/01/29 12:37:24;;;;;;;26.27;6.45;;;;;;;;;;5085736;28;19957;-84
2021/01/29 12:39:53;;;;;;;28.63;4.70;;;;;;;;;;5077298;28;20121;-85
2021/01/29 12:42:22;;;;;;;17.17;4.30;;;;;;;;;;5089985;28;20031;-83
2021/01/29 12:44:51;;;;;;;16.63;3.22;;;;;;;;;;5086228;28;20031;-85
2021/01/29 12:47:34;;;;;;;16.52;3.45;;;;;;;;;;5100486;28;20036;-83
2021/01/29 12:50:03;;;;;;;20.15;3.78;;;;;;;;;;5087157;28;20035;-85
2021/01/29 12:52:33;;;;;;;23.50;3.85;;;;;;;;;;5084213;28;20024;-84
2021/01/29 12:55:05;;;;;;;17.75;3.90;;;;;;;;;;5087996;28;20023;-85
2021/01/29 12:57:33;;;;;;;14.65;3.15;;;;;;;;;;5043692;28;20117;-85
2021/01/29 13:00:41;;;;;;;21.58;4.15;;;;;;;;;;5061247;28;20051;-84
2021/01/29 13:03:08;;;;;;;18.20;4.50;;;;;;;;;;5014470;28;20030;-85
2021/01/29 13:05:44;;;;;;;14.00;4.43;;;;;;;;;;5049548;28;20035;-85
2021/01/29 13:08:16;;;;;;;20.15;4.55;;;;;;;;;;5095629;28;20063;-85
2021/01/29 13:10:54;;;;;;;15.05;3.45;;;;;;;;;;5084534;28;20032;-85
2021/01/29 13:13:29;;;;;;;19.45;4.38;;;;;;;;;;5076898;28;20103;-89
2021/01/29 13:16:14;;;;;;;21.17;4.38;;;;;;;;;;5081798;28;20070;-88
2021/01/29 13:18:51;;;;;;;18.67;4.03;;;;;;;;;;5086114;28;20084;-85
2021/01/29 13:21:25;;;;;;;20.30;4.68;;;;;;;;;;5083234;28;20032;-86
2021/01/29 13:23:51;;;;;;;17.25;4.78;;;;;;;;;;5088982;28;20049;-86
2021/01/29 13:26:30;;;;;;;14.18;4.07;;;;;;;;;;5080815;28;20113;-86
2021/01/29 13:29:16;;;;;;;14.47;4.03;;;;;;;;;;5087257;28;20032;-85
2021/01/29 13:31:44;;;;;;;18.98;5.10;;;;;;;;;;5066364;28;20063;-86
2021/01/29 13:34:13;;;;;;;14.32;4.25;;;;;;;;;;5084690;28;20263;-86
2021/01/29 13:36:39;;;;;;;18.50;4.63;;;;;;;;;;5081536;28;20104;-86
2021/01/29 13:39:09;;;;;;;23.92;5.93;;;;;;;;;;5080951;28;20028;-85
2021/01/29 13:41:35;;;;;;;;;;;;;;;;;;5086869;28;20152;-88
2021/01/29 13:44:19;;;;;;;18.42;5.72;;;;;;;;;;5089743;28;19959;-86
2021/01/29 13:46:50;;;;;;;21.02;5.20;;;;;;;;;;5079185;28;20074;-86
2021/01/29 13:49:26;;;;;;;18.40;5.13;;;;;;;;;;5103200;28;20038;-87
2021/01/29 13:51:53;;;;;;;21.10;6.03;;;;;;;;;;5064836;28;20055;-84
2021/01/29 13:54:30;;;;;;;25.08;6.07;;;;;;;;;;5036045;28;20445;-86
2021/01/29 13:56:58;;;;;;;15.77;5.80;;;;;;;;;;5043021;28;20041;-87
2021/01/29 13:59:28;;;;;;;17.25;5.97;;;;;;;;;;5075067;28;20432;-86
2021/01/29 14:02:00;;;;;;;18.52;5.65;;;;;;;;;;5084566;28;20457;-87
2021/01/29 14:04:32;;;;;;;17.13;5.15;;;;;;;;;;5085526;28;20035;-86
2021/01/29 14:06:58;;;;;;;14.85;4.93;;;;;;;;;;5086520;28;20043;-85
2021/01/29 14:09:24;;;;;;;18.70;5.63;;;;;;;;;;5041785;28;20052;-85
2021/01/29 14:12:16;;;;;;;14.77;4.60;;;;;;;;;;5067047;28;20030;-85
2021/01/29 14:14:45;;;;;;;15.77;5.18;;;;;;;;;;5067426;28;20056;-85
2021/01/29 14:17:30;;;;;;;13.82;4.82;;;;;;;;;;5019286;28;20030;-85
2021/01/29 14:20:17;;;;;;;16.13;4.35;;;;;;;;;;5094076;28;20059;-84
2021/01/29 14:23:02;;;;;;;16.58;3.95;;;;;;;;;;5079254;28;20037;-85
2021/01/29 14:25:34;;;;;;;13.48;3.42;;;;;;;;;;5070325;28;20090;-84
2021/01/29 14:28:09;;;;;;;13.60;3.38;;;;;;;;;;5087450;28;20431;-85
2021/01/29 14:30:38;;;;;;;12.00;4.13;;;;;;;;;;5097927;28;20028;-86
2021/01/29 14:33:16;;;;;;;17.75;4.15;;;;;;;;;;5002462;28;20029;-85
2021/01/29 14:35:52;;;;;;;12.15;3.70;;;;;;;;;;5070906;28;20036;-85
2021/01/29 14:38:37;;;;;;;15.18;3.63;;;;;;;;;;5080581;28;20097;-85
2021/01/29 14:41:06;;;;;;;16.08;3.55;;;;;;;;;;5095880;28;20021;-85
2021/01/29 14:43:41;;;;;;;13.80;4.50;;;;;;;;;;5055731;28;20020;-85
2021/01/29 14:46:32;;;;;;;19.77;4.97;;;;;;;;;;5094243;28;20120;-84
2021/01/29 14:49:17;;;;;;;12.77;3.00;;;;;;;;;;5077636;28;20086;-85
2021/01/29 14:51:43;;;;;;;10.48;2.70;;;;;;;;;;5098319;28;20039;-84
2021/01/29 14:54:16;;;;;;;14.57;2.67;;;;;;;;;;5080530;28;20169;-84
2021/01/29 14:56:42;;;;;;;14.98;3.53;;;;;;;;;;5081044;28;20051;-84
2021/01/29 14:59:21;;;;;;;12.18;2.80;;;;;;;;;;5080357;28;20028;-86
2021/01/29 15:01:52;;;;;;;19.35;5.25;;;;;;;;;;5094437;28;20028;-84
2021/01/29 15:04:30;;;;;;;13.32;3.75;;;;;;;;;;5099194;28;20048;-83
2021/01/29 15:06:58;;;;;;;14.50;3.10;;;;;;;;;;5085990;28;20058;-84
2021/01/29 15:09:27;;;;;;;12.57;2.95;;;;;;;;;;5081556;28;20024;-84
2021/01/29 15:11:54;;;;;;;11.90;2.72;;;;;;;;;;5081457;28;20078;-86
2021/01/29 15:14:37;;;;;;;16.65;2.90;;;;;;;;;;5084961;28;20329;-85
2021/01/29 15:17:03;;;;;;;16.83;3.67;;;;;;;;;;5091526;28;20126;-85
2021/01/29 15:19:32;;;;;;;13.63;2.78;;;;;;;;;;5081922;28;20024;-83